sensor_id;sensor_type;location;lat;lon;timestamp;P1;durP1;ratioP1;P2;durP2;ratioP2
75486;SDS011;65009;44.762;21.516;2022-11-15T00:00:00;23.77;;;11.90;;
75486;SDS011;65009;44.762;21.516;2022-11-15T00:02:26;18.77;;;10.67;;
75486;SDS011;65009;44.762;21.516;2022-11-15T00:04:52;20.03;;;10.23;;
75486;SDS011;65009;44.762;21.516;2022-11-15T00:07:18;17.67;;;10.67;;
75486;SDS011;65009;44.762;21.516;2022-11-15T00:09:44;18.87;;;10.97;;
75486;SDS011;65009;44.762;21.516;2022-11-15T00:12:10;16.80;;;10.33;;
75486;SDS011;65009;44.762;21.516;2022-11-15T00:14:36;15.50;;;9.00;;
75486;SDS011;65009;44.762;21.516;2022-11-15T00:17:02;16.53;;;9.70;;
75486;SDS011;65009;44.762;21.516;2022-11-15T00:19:29;13.80;;;8.70;;
75486;SDS011;65009;44.762;21.516;2022-11-15T00:21:55;18.07;;;10.70;;
75486;SDS011;65009;44.762;21.516;2022-11-15T00:24:21;15.23;;;9.70;;
75486;SDS011;65009;44.762;21.516;2022-11-15T00:26:47;14.60;;;8.77;;
75486;SDS011;65009;44.762;21.516;2022-11-15T00:29:13;16.63;;;9.97;;
75486;SDS011;65009;44.762;21.516;2022-11-15T00:31:39;14.37;;;9.00;;
75486;SDS011;65009;44.762;21.516;2022-11-15T00:34:05;17.20;;;9.87;;
75486;SDS011;65009;44.762;21.516;2022-11-15T00:36:35;19.70;;;10.87;;
75486;SDS011;65009;44.762;21.516;2022-11-15T00:39:03;18.33;;;9.93;;
75486;SDS011;65009;44.762;21.516;2022-11-15T00:41:29;17.20;;;10.50;;
75486;SDS011;65009;44.762;21.516;2022-11-15T00:43:55;13.73;;;9.10;;
75486;SDS011;65009;44.762;21.516;2022-11-15T00:46:21;14.63;;;9.37;;
75486;SDS011;65009;44.762;21.516;2022-11-15T00:48:47;15.83;;;10.37;;
75486;SDS011;65009;44.762;21.516;2022-11-15T00:51:14;18.23;;;10.43;;
75486;SDS011;65009;44.762;21.516;2022-11-15T00:53:40;14.33;;;9.07;;
75486;SDS011;65009;44.762;21.516;2022-11-15T00:56:06;16.77;;;9.97;;
75486;SDS011;65009;44.762;21.516;2022-11-15T00:58:32;16.83;;;10.40;;
75486;SDS011;65009;44.762;21.516;2022-11-15T01:01:12;16.50;;;9.73;;
75486;SDS011;65009;44.762;21.516;2022-11-15T01:03:38;18.63;;;10.50;;
75486;SDS011;65009;44.762;21.516;2022-11-15T01:06:05;17.90;;;10.03;;
75486;SDS011;65009;44.762;21.516;2022-11-15T01:08:31;14.67;;;9.47;;
75486;SDS011;65009;44.762;21.516;2022-11-15T01:11:04;15.93;;;9.73;;
75486;SDS011;65009;44.762;21.516;2022-11-15T01:13:32;16.37;;;9.23;;
75486;SDS011;65009;44.762;21.516;2022-11-15T01:15:59;14.70;;;9.37;;
75486;SDS011;65009;44.762;21.516;2022-11-15T01:18:25;15.50;;;9.87;;
75486;SDS011;65009;44.762;21.516;2022-11-15T01:20:51;15.20;;;9.57;;
75486;SDS011;65009;44.762;21.516;2022-11-15T01:23:17;13.57;;;8.20;;
75486;SDS011;65009;44.762;21.516;2022-11-15T01:25:44;18.73;;;10.03;;
75486;SDS011;65009;44.762;21.516;2022-11-15T01:28:10;21.77;;;12.23;;
75486;SDS011;65009;44.762;21.516;2022-11-15T01:30:36;20.50;;;11.73;;
75486;SDS011;65009;44.762;21.516;2022-11-15T01:33:02;17.30;;;10.80;;
75486;SDS011;65009;44.762;21.516;2022-11-15T01:35:28;16.53;;;10.43;;
75486;SDS011;65009;44.762;21.516;2022-11-15T01:37:55;19.03;;;11.13;;
75486;SDS011;65009;44.762;21.516;2022-11-15T01:40:21;15.40;;;9.50;;
75486;SDS011;65009;44.762;21.516;2022-11-15T01:42:47;18.30;;;9.50;;
75486;SDS011;65009;44.762;21.516;2022-11-15T01:45:16;16.20;;;9.00;;
75486;SDS011;65009;44.762;21.516;2022-11-15T01:47:44;14.03;;;9.23;;
75486;SDS011;65009;44.762;21.516;2022-11-15T01:50:12;15.37;;;9.53;;
75486;SDS011;65009;44.762;21.516;2022-11-15T01:52:40;16.07;;;9.20;;
75486;SDS011;65009;44.762;21.516;2022-11-15T01:55:11;16.43;;;9.90;;
75486;SDS011;65009;44.762;21.516;2022-11-15T01:57:37;17.00;;;9.70;;
75486;SDS011;65009;44.762;21.516;2022-11-15T02:00:05;17.70;;;10.03;;
75486;SDS011;65009;44.762;21.516;2022-11-15T02:02:32;14.37;;;9.13;;
75486;SDS011;65009;44.762;21.516;2022-11-15T02:04:59;16.07;;;9.43;;
75486;SDS011;65009;44.762;21.516;2022-11-15T02:07:25;13.90;;;8.70;;
75486;SDS011;65009;44.762;21.516;2022-11-15T02:09:51;14.67;;;9.03;;
75486;SDS011;65009;44.762;21.516;2022-11-15T02:12:19;14.47;;;8.60;;
75486;SDS011;65009;44.762;21.516;2022-11-15T02:14:46;12.80;;;8.57;;
75486;SDS011;65009;44.762;21.516;2022-11-15T02:17:21;20.80;;;9.37;;
75486;SDS011;65009;44.762;21.516;2022-11-15T02:22:37;14.17;;;8.23;;
75486;SDS011;65009;44.762;21.516;2022-11-15T02:25:18;13.27;;;8.20;;
75486;SDS011;65009;44.762;21.516;2022-11-15T02:30:37;13.83;;;8.73;;
75486;SDS011;65009;44.762;21.516;2022-11-15T02:35:57;13.77;;;8.77;;
75486;SDS011;65009;44.762;21.516;2022-11-15T02:41:03;13.00;;;7.73;;
75486;SDS011;65009;44.762;21.516;2022-11-15T02:43:40;11.68;;;8.07;;
75486;SDS011;65009;44.762;21.516;2022-11-15T02:46:24;12.75;;;8.18;;
75486;SDS011;65009;44.762;21.516;2022-11-15T02:49:11;12.40;;;7.80;;
75486;SDS011;65009;44.762;21.516;2022-11-15T02:51:39;13.20;;;8.83;;
75486;SDS011;65009;44.762;21.516;2022-11-15T02:54:06;12.67;;;8.87;;
75486;SDS011;65009;44.762;21.516;2022-11-15T02:56:32;13.80;;;9.27;;
75486;SDS011;65009;44.762;21.516;2022-11-15T03:08:54;16.13;;;9.87;;
75486;SDS011;65009;44.762;21.516;2022-11-15T03:11:23;15.20;;;10.50;;
75486;SDS011;65009;44.762;21.516;2022-11-15T03:16:34;19.47;;;11.40;;
75486;SDS011;65009;44.762;21.516;2022-11-15T03:21:31;17.53;;;11.27;;
75486;SDS011;65009;44.762;21.516;2022-11-15T03:23:59;15.53;;;10.57;;
75486;SDS011;65009;44.762;21.516;2022-11-15T03:26:26;13.90;;;9.87;;
75486;SDS011;65009;44.762;21.516;2022-11-15T03:28:55;16.50;;;10.77;;
75486;SDS011;65009;44.762;21.516;2022-11-15T03:31:23;15.83;;;10.97;;
75486;SDS011;65009;44.762;21.516;2022-11-15T03:34:10;19.33;;;11.60;;
75486;SDS011;65009;44.762;21.516;2022-11-15T03:36:37;17.77;;;10.97;;
75486;SDS011;65009;44.762;21.516;2022-11-15T03:39:05;19.57;;;11.87;;
75486;SDS011;65009;44.762;21.516;2022-11-15T03:41:36;17.33;;;11.33;;
75486;SDS011;65009;44.762;21.516;2022-11-15T03:44:11;19.37;;;12.90;;
75486;SDS011;65009;44.762;21.516;2022-11-15T03:46:48;18.97;;;12.00;;
75486;SDS011;65009;44.762;21.516;2022-11-15T03:49:24;17.83;;;11.53;;
75486;SDS011;65009;44.762;21.516;2022-11-15T03:51:51;18.30;;;11.63;;
75486;SDS011;65009;44.762;21.516;2022-11-15T03:54:17;19.83;;;12.97;;
75486;SDS011;65009;44.762;21.516;2022-11-15T03:56:43;17.27;;;11.10;;
75486;SDS011;65009;44.762;21.516;2022-11-15T03:59:09;19.70;;;11.83;;
75486;SDS011;65009;44.762;21.516;2022-11-15T04:01:35;20.13;;;12.13;;
75486;SDS011;65009;44.762;21.516;2022-11-15T04:04:02;20.70;;;12.97;;
75486;SDS011;65009;44.762;21.516;2022-11-15T04:06:28;17.47;;;12.07;;
75486;SDS011;65009;44.762;21.516;2022-11-15T04:08:54;22.37;;;13.63;;
75486;SDS011;65009;44.762;21.516;2022-11-15T04:11:20;23.20;;;14.13;;
75486;SDS011;65009;44.762;21.516;2022-11-15T04:13:46;19.80;;;13.13;;
75486;SDS011;65009;44.762;21.516;2022-11-15T04:16:13;20.50;;;12.43;;
75486;SDS011;65009;44.762;21.516;2022-11-15T04:18:39;20.67;;;12.50;;
75486;SDS011;65009;44.762;21.516;2022-11-15T04:21:05;21.60;;;12.97;;
75486;SDS011;65009;44.762;21.516;2022-11-15T04:23:50;20.17;;;12.57;;
75486;SDS011;65009;44.762;21.516;2022-11-15T04:26:34;21.07;;;12.97;;
75486;SDS011;65009;44.762;21.516;2022-11-15T04:29:00;20.83;;;12.67;;
75486;SDS011;65009;44.762;21.516;2022-11-15T04:31:45;22.53;;;13.93;;
75486;SDS011;65009;44.762;21.516;2022-11-15T04:34:11;24.03;;;15.00;;
75486;SDS011;65009;44.762;21.516;2022-11-15T04:36:38;22.23;;;14.57;;
75486;SDS011;65009;44.762;21.516;2022-11-15T04:39:22;22.87;;;14.10;;
75486;SDS011;65009;44.762;21.516;2022-11-15T04:41:48;26.50;;;14.77;;
75486;SDS011;65009;44.762;21.516;2022-11-15T04:44:14;26.80;;;16.37;;
75486;SDS011;65009;44.762;21.516;2022-11-15T04:46:41;27.63;;;15.27;;
75486;SDS011;65009;44.762;21.516;2022-11-15T04:49:07;26.83;;;14.30;;
75486;SDS011;65009;44.762;21.516;2022-11-15T04:51:34;26.73;;;15.70;;
75486;SDS011;65009;44.762;21.516;2022-11-15T04:54:00;27.87;;;15.90;;
75486;SDS011;65009;44.762;21.516;2022-11-15T04:56:26;28.80;;;15.97;;
75486;SDS011;65009;44.762;21.516;2022-11-15T04:58:52;25.77;;;15.80;;
75486;SDS011;65009;44.762;21.516;2022-11-15T05:01:18;26.37;;;15.73;;
75486;SDS011;65009;44.762;21.516;2022-11-15T05:03:45;25.67;;;15.37;;
75486;SDS011;65009;44.762;21.516;2022-11-15T05:06:29;31.00;;;17.30;;
75486;SDS011;65009;44.762;21.516;2022-11-15T05:08:56;26.93;;;15.63;;
75486;SDS011;65009;44.762;21.516;2022-11-15T05:11:22;27.90;;;16.80;;
75486;SDS011;65009;44.762;21.516;2022-11-15T05:13:49;31.90;;;17.83;;
75486;SDS011;65009;44.762;21.516;2022-11-15T05:16:15;31.03;;;17.17;;
75486;SDS011;65009;44.762;21.516;2022-11-15T05:18:41;33.30;;;18.73;;
75486;SDS011;65009;44.762;21.516;2022-11-15T05:21:08;30.70;;;18.33;;
75486;SDS011;65009;44.762;21.516;2022-11-15T05:23:35;32.30;;;19.30;;
75486;SDS011;65009;44.762;21.516;2022-11-15T05:26:02;32.03;;;18.37;;
75486;SDS011;65009;44.762;21.516;2022-11-15T05:28:28;34.87;;;21.03;;
75486;SDS011;65009;44.762;21.516;2022-11-15T05:31:04;33.33;;;19.10;;
75486;SDS011;65009;44.762;21.516;2022-11-15T05:33:31;28.73;;;17.43;;
75486;SDS011;65009;44.762;21.516;2022-11-15T05:35:59;33.57;;;18.80;;
75486;SDS011;65009;44.762;21.516;2022-11-15T05:38:26;34.43;;;18.63;;
75486;SDS011;65009;44.762;21.516;2022-11-15T05:40:52;33.07;;;19.00;;
75486;SDS011;65009;44.762;21.516;2022-11-15T05:43:19;55.03;;;25.47;;
75486;SDS011;65009;44.762;21.516;2022-11-15T05:45:45;66.13;;;30.00;;
75486;SDS011;65009;44.762;21.516;2022-11-15T05:48:11;37.50;;;20.60;;
75486;SDS011;65009;44.762;21.516;2022-11-15T05:50:38;37.57;;;21.50;;
75486;SDS011;65009;44.762;21.516;2022-11-15T05:53:05;46.83;;;26.47;;
75486;SDS011;65009;44.762;21.516;2022-11-15T05:55:31;46.23;;;27.20;;
75486;SDS011;65009;44.762;21.516;2022-11-15T05:57:58;32.53;;;19.53;;
75486;SDS011;65009;44.762;21.516;2022-11-15T06:00:24;34.57;;;19.57;;
75486;SDS011;65009;44.762;21.516;2022-11-15T06:02:50;31.47;;;18.13;;
75486;SDS011;65009;44.762;21.516;2022-11-15T06:05:16;28.80;;;17.50;;
75486;SDS011;65009;44.762;21.516;2022-11-15T06:07:42;31.93;;;19.00;;
75486;SDS011;65009;44.762;21.516;2022-11-15T06:10:09;40.27;;;21.63;;
75486;SDS011;65009;44.762;21.516;2022-11-15T06:12:35;41.80;;;22.30;;
75486;SDS011;65009;44.762;21.516;2022-11-15T06:15:01;34.77;;;19.47;;
75486;SDS011;65009;44.762;21.516;2022-11-15T06:17:28;35.60;;;19.83;;
75486;SDS011;65009;44.762;21.516;2022-11-15T06:19:54;35.37;;;19.97;;
75486;SDS011;65009;44.762;21.516;2022-11-15T06:22:21;27.63;;;17.20;;
75486;SDS011;65009;44.762;21.516;2022-11-15T06:24:47;34.43;;;19.67;;
75486;SDS011;65009;44.762;21.516;2022-11-15T06:27:13;32.47;;;17.80;;
75486;SDS011;65009;44.762;21.516;2022-11-15T06:29:40;33.43;;;18.43;;
75486;SDS011;65009;44.762;21.516;2022-11-15T06:32:06;38.93;;;20.00;;
75486;SDS011;65009;44.762;21.516;2022-11-15T06:34:32;33.30;;;18.40;;
75486;SDS011;65009;44.762;21.516;2022-11-15T06:36:58;31.83;;;18.17;;
75486;SDS011;65009;44.762;21.516;2022-11-15T06:39:24;32.57;;;18.43;;
75486;SDS011;65009;44.762;21.516;2022-11-15T06:41:51;32.20;;;16.83;;
75486;SDS011;65009;44.762;21.516;2022-11-15T06:44:17;27.27;;;16.10;;
75486;SDS011;65009;44.762;21.516;2022-11-15T06:46:43;31.23;;;17.93;;
75486;SDS011;65009;44.762;21.516;2022-11-15T06:49:09;29.20;;;17.70;;
75486;SDS011;65009;44.762;21.516;2022-11-15T06:51:35;30.27;;;18.67;;
75486;SDS011;65009;44.762;21.516;2022-11-15T06:54:01;34.53;;;19.20;;
75486;SDS011;65009;44.762;21.516;2022-11-15T06:56:28;30.00;;;18.20;;
75486;SDS011;65009;44.762;21.516;2022-11-15T06:58:55;28.53;;;18.03;;
75486;SDS011;65009;44.762;21.516;2022-11-15T07:01:21;33.93;;;18.93;;
75486;SDS011;65009;44.762;21.516;2022-11-15T07:03:47;29.98;;;17.20;;
75486;SDS011;65009;44.762;21.516;2022-11-15T07:06:13;26.73;;;15.47;;
75486;SDS011;65009;44.762;21.516;2022-11-15T07:08:39;23.15;;;14.93;;
75486;SDS011;65009;44.762;21.516;2022-11-15T07:11:07;27.57;;;15.60;;
75486;SDS011;65009;44.762;21.516;2022-11-15T07:13:34;25.83;;;15.27;;
75486;SDS011;65009;44.762;21.516;2022-11-15T07:16:02;23.90;;;14.43;;
75486;SDS011;65009;44.762;21.516;2022-11-15T07:18:28;23.90;;;14.75;;
75486;SDS011;65009;44.762;21.516;2022-11-15T07:20:55;24.73;;;15.30;;
75486;SDS011;65009;44.762;21.516;2022-11-15T07:23:21;27.75;;;16.42;;
75486;SDS011;65009;44.762;21.516;2022-11-15T07:25:47;21.13;;;13.95;;
75486;SDS011;65009;44.762;21.516;2022-11-15T07:28:13;24.45;;;15.18;;
75486;SDS011;65009;44.762;21.516;2022-11-15T07:30:39;28.77;;;15.03;;
75486;SDS011;65009;44.762;21.516;2022-11-15T07:33:06;22.30;;;15.02;;
75486;SDS011;65009;44.762;21.516;2022-11-15T07:35:32;28.27;;;15.80;;
75486;SDS011;65009;44.762;21.516;2022-11-15T07:37:59;21.08;;;14.52;;
75486;SDS011;65009;44.762;21.516;2022-11-15T07:40:26;20.98;;;14.57;;
75486;SDS011;65009;44.762;21.516;2022-11-15T07:42:52;22.05;;;14.38;;
75486;SDS011;65009;44.762;21.516;2022-11-15T07:45:19;23.38;;;14.60;;
75486;SDS011;65009;44.762;21.516;2022-11-15T07:47:46;22.45;;;14.52;;
75486;SDS011;65009;44.762;21.516;2022-11-15T07:50:12;24.60;;;14.82;;
75486;SDS011;65009;44.762;21.516;2022-11-15T07:52:38;30.15;;;16.50;;
75486;SDS011;65009;44.762;21.516;2022-11-15T07:55:04;23.20;;;14.48;;
75486;SDS011;65009;44.762;21.516;2022-11-15T07:57:31;25.48;;;15.88;;
75486;SDS011;65009;44.762;21.516;2022-11-15T07:59:57;23.42;;;14.95;;
75486;SDS011;65009;44.762;21.516;2022-11-15T08:02:23;20.27;;;13.93;;
75486;SDS011;65009;44.762;21.516;2022-11-15T08:04:49;26.80;;;15.60;;
75486;SDS011;65009;44.762;21.516;2022-11-15T08:07:15;22.02;;;14.15;;
75486;SDS011;65009;44.762;21.516;2022-11-15T08:09:41;26.25;;;16.08;;
75486;SDS011;65009;44.762;21.516;2022-11-15T08:12:07;37.70;;;20.75;;
75486;SDS011;65009;44.762;21.516;2022-11-15T08:14:34;41.70;;;25.80;;
75486;SDS011;65009;44.762;21.516;2022-11-15T08:17:01;33.53;;;21.27;;
75486;SDS011;65009;44.762;21.516;2022-11-15T08:19:27;23.42;;;14.88;;
75486;SDS011;65009;44.762;21.516;2022-11-15T08:21:53;20.88;;;14.73;;
75486;SDS011;65009;44.762;21.516;2022-11-15T08:24:19;23.25;;;14.65;;
75486;SDS011;65009;44.762;21.516;2022-11-15T08:26:45;25.60;;;16.67;;
75486;SDS011;65009;44.762;21.516;2022-11-15T08:29:12;20.88;;;14.57;;
75486;SDS011;65009;44.762;21.516;2022-11-15T08:31:38;24.75;;;15.55;;
75486;SDS011;65009;44.762;21.516;2022-11-15T08:34:05;27.10;;;16.20;;
75486;SDS011;65009;44.762;21.516;2022-11-15T08:36:31;25.60;;;15.43;;
75486;SDS011;65009;44.762;21.516;2022-11-15T08:38:57;28.40;;;15.67;;
75486;SDS011;65009;44.762;21.516;2022-11-15T08:41:33;29.80;;;17.23;;
75486;SDS011;65009;44.762;21.516;2022-11-15T08:44:00;32.90;;;18.63;;
75486;SDS011;65009;44.762;21.516;2022-11-15T08:46:27;33.17;;;19.70;;
75486;SDS011;65009;44.762;21.516;2022-11-15T08:48:53;28.93;;;17.77;;
75486;SDS011;65009;44.762;21.516;2022-11-15T08:51:19;31.10;;;18.03;;
75486;SDS011;65009;44.762;21.516;2022-11-15T08:53:45;31.73;;;18.17;;
75486;SDS011;65009;44.762;21.516;2022-11-15T08:56:12;29.67;;;17.73;;
75486;SDS011;65009;44.762;21.516;2022-11-15T08:58:39;27.33;;;17.30;;
75486;SDS011;65009;44.762;21.516;2022-11-15T09:01:05;26.73;;;16.37;;
75486;SDS011;65009;44.762;21.516;2022-11-15T09:03:31;22.73;;;14.53;;
75486;SDS011;65009;44.762;21.516;2022-11-15T09:05:58;26.73;;;16.13;;
75486;SDS011;65009;44.762;21.516;2022-11-15T09:08:25;23.53;;;15.80;;
75486;SDS011;65009;44.762;21.516;2022-11-15T09:10:51;24.47;;;16.40;;
75486;SDS011;65009;44.762;21.516;2022-11-15T09:13:17;23.42;;;14.27;;
75486;SDS011;65009;44.762;21.516;2022-11-15T09:15:44;25.07;;;16.47;;
75486;SDS011;65009;44.762;21.516;2022-11-15T09:18:10;33.90;;;19.07;;
75486;SDS011;65009;44.762;21.516;2022-11-15T09:20:37;26.03;;;16.23;;
75486;SDS011;65009;44.762;21.516;2022-11-15T09:23:03;29.37;;;18.47;;
75486;SDS011;65009;44.762;21.516;2022-11-15T09:25:30;26.70;;;16.33;;
75486;SDS011;65009;44.762;21.516;2022-11-15T09:27:56;28.37;;;16.97;;
75486;SDS011;65009;44.762;21.516;2022-11-15T09:30:23;31.47;;;17.67;;
75486;SDS011;65009;44.762;21.516;2022-11-15T09:32:49;37.43;;;21.57;;
75486;SDS011;65009;44.762;21.516;2022-11-15T09:35:16;36.53;;;19.63;;
75486;SDS011;65009;44.762;21.516;2022-11-15T09:37:42;35.73;;;20.27;;
75486;SDS011;65009;44.762;21.516;2022-11-15T09:40:09;34.57;;;20.33;;
75486;SDS011;65009;44.762;21.516;2022-11-15T09:42:43;26.40;;;16.67;;
75486;SDS011;65009;44.762;21.516;2022-11-15T09:47:45;51.03;;;19.83;;
75486;SDS011;65009;44.762;21.516;2022-11-15T09:50:15;24.50;;;16.50;;
75486;SDS011;65009;44.762;21.516;2022-11-15T09:52:43;28.03;;;16.37;;
75486;SDS011;65009;44.762;21.516;2022-11-15T09:55:10;28.70;;;17.23;;
75486;SDS011;65009;44.762;21.516;2022-11-15T09:57:49;32.17;;;18.03;;
75486;SDS011;65009;44.762;21.516;2022-11-15T10:00:29;28.70;;;16.10;;
75486;SDS011;65009;44.762;21.516;2022-11-15T10:05:23;28.83;;;16.67;;
75486;SDS011;65009;44.762;21.516;2022-11-15T10:07:54;24.93;;;14.57;;
75486;SDS011;65009;44.762;21.516;2022-11-15T10:10:32;25.60;;;15.17;;
75486;SDS011;65009;44.762;21.516;2022-11-15T10:13:02;28.83;;;16.60;;
75486;SDS011;65009;44.762;21.516;2022-11-15T10:15:28;25.17;;;15.87;;
75486;SDS011;65009;44.762;21.516;2022-11-15T10:20:27;28.13;;;17.13;;
75486;SDS011;65009;44.762;21.516;2022-11-15T10:22:55;24.47;;;16.17;;
75486;SDS011;65009;44.762;21.516;2022-11-15T10:27:53;30.10;;;16.50;;
75486;SDS011;65009;44.762;21.516;2022-11-15T10:30:19;28.98;;;16.55;;
75486;SDS011;65009;44.762;21.516;2022-11-15T10:32:46;25.20;;;15.47;;
75486;SDS011;65009;44.762;21.516;2022-11-15T10:35:32;27.77;;;17.07;;
75486;SDS011;65009;44.762;21.516;2022-11-15T10:38:11;23.73;;;16.00;;
75486;SDS011;65009;44.762;21.516;2022-11-15T10:40:38;24.80;;;16.37;;
75486;SDS011;65009;44.762;21.516;2022-11-15T10:43:10;35.63;;;17.90;;
75486;SDS011;65009;44.762;21.516;2022-11-15T10:45:39;33.73;;;18.73;;
75486;SDS011;65009;44.762;21.516;2022-11-15T10:50:37;30.17;;;18.50;;
75486;SDS011;65009;44.762;21.516;2022-11-15T10:53:04;25.17;;;15.90;;
75486;SDS011;65009;44.762;21.516;2022-11-15T10:55:37;31.33;;;17.83;;
75486;SDS011;65009;44.762;21.516;2022-11-15T10:58:18;25.20;;;16.70;;
75486;SDS011;65009;44.762;21.516;2022-11-15T11:00:45;30.83;;;17.07;;
75486;SDS011;65009;44.762;21.516;2022-11-15T11:03:26;25.63;;;16.00;;
75486;SDS011;65009;44.762;21.516;2022-11-15T11:06:06;28.67;;;17.45;;
75486;SDS011;65009;44.762;21.516;2022-11-15T11:08:33;25.17;;;15.50;;
75486;SDS011;65009;44.762;21.516;2022-11-15T11:11:00;32.50;;;18.37;;
75486;SDS011;65009;44.762;21.516;2022-11-15T11:13:30;29.27;;;17.60;;
75486;SDS011;65009;44.762;21.516;2022-11-15T11:18:38;33.10;;;19.90;;
75486;SDS011;65009;44.762;21.516;2022-11-15T11:21:10;29.60;;;20.13;;
75486;SDS011;65009;44.762;21.516;2022-11-15T11:23:56;30.73;;;18.07;;
75486;SDS011;65009;44.762;21.516;2022-11-15T11:34:43;47.20;;;28.57;;
75486;SDS011;65009;44.762;21.516;2022-11-15T11:37:29;45.40;;;27.13;;
75486;SDS011;65009;44.762;21.516;2022-11-15T11:47:53;32.10;;;19.70;;
75486;SDS011;65009;44.762;21.516;2022-11-15T11:50:23;29.47;;;19.27;;
75486;SDS011;65009;44.762;21.516;2022-11-15T11:53:02;31.17;;;19.10;;
75486;SDS011;65009;44.762;21.516;2022-11-15T11:55:32;31.97;;;18.87;;
75486;SDS011;65009;44.762;21.516;2022-11-15T11:58:06;28.87;;;18.53;;
75486;SDS011;65009;44.762;21.516;2022-11-15T12:00:38;35.43;;;20.90;;
75486;SDS011;65009;44.762;21.516;2022-11-15T12:05:39;35.77;;;21.33;;
75486;SDS011;65009;44.762;21.516;2022-11-15T12:10:46;36.67;;;21.57;;
75486;SDS011;65009;44.762;21.516;2022-11-15T12:13:19;29.30;;;17.67;;
75486;SDS011;65009;44.762;21.516;2022-11-15T12:15:47;35.45;;;21.13;;
75486;SDS011;65009;44.762;21.516;2022-11-15T12:18:16;25.02;;;16.33;;
75486;SDS011;65009;44.762;21.516;2022-11-15T12:20:53;27.43;;;16.17;;
75486;SDS011;65009;44.762;21.516;2022-11-15T12:23:25;26.40;;;16.87;;
75486;SDS011;65009;44.762;21.516;2022-11-15T12:25:58;29.00;;;17.80;;
75486;SDS011;65009;44.762;21.516;2022-11-15T12:31:03;34.00;;;20.10;;
75486;SDS011;65009;44.762;21.516;2022-11-15T12:33:32;30.93;;;19.33;;
75486;SDS011;65009;44.762;21.516;2022-11-15T12:36:10;28.17;;;17.73;;
75486;SDS011;65009;44.762;21.516;2022-11-15T12:38:53;30.10;;;19.10;;
75486;SDS011;65009;44.762;21.516;2022-11-15T12:41:20;36.43;;;21.40;;
75486;SDS011;65009;44.762;21.516;2022-11-15T12:43:47;54.00;;;31.67;;
75486;SDS011;65009;44.762;21.516;2022-11-15T12:46:21;45.50;;;27.57;;
75486;SDS011;65009;44.762;21.516;2022-11-15T12:48:51;39.10;;;22.53;;
75486;SDS011;65009;44.762;21.516;2022-11-15T12:51:19;72.57;;;38.13;;
75486;SDS011;65009;44.762;21.516;2022-11-15T12:53:46;50.27;;;28.03;;
75486;SDS011;65009;44.762;21.516;2022-11-15T12:58:59;83.63;;;39.53;;
75486;SDS011;65009;44.762;21.516;2022-11-15T13:06:36;27.47;;;18.37;;
75486;SDS011;65009;44.762;21.516;2022-11-15T13:09:06;29.60;;;19.60;;
75486;SDS011;65009;44.762;21.516;2022-11-15T13:11:50;34.03;;;21.23;;
75486;SDS011;65009;44.762;21.516;2022-11-15T13:17:02;29.93;;;18.50;;
75486;SDS011;65009;44.762;21.516;2022-11-15T13:19:29;35.17;;;21.33;;
75486;SDS011;65009;44.762;21.516;2022-11-15T13:21:56;35.80;;;22.40;;
75486;SDS011;65009;44.762;21.516;2022-11-15T13:24:40;42.00;;;24.23;;
75486;SDS011;65009;44.762;21.516;2022-11-15T13:27:17;31.13;;;19.63;;
75486;SDS011;65009;44.762;21.516;2022-11-15T13:29:44;36.80;;;22.23;;
75486;SDS011;65009;44.762;21.516;2022-11-15T13:32:11;29.60;;;18.63;;
75486;SDS011;65009;44.762;21.516;2022-11-15T13:34:38;34.97;;;21.80;;
75486;SDS011;65009;44.762;21.516;2022-11-15T13:37:32;32.17;;;19.80;;
75486;SDS011;65009;44.762;21.516;2022-11-15T13:42:43;40.30;;;21.67;;
75486;SDS011;65009;44.762;21.516;2022-11-15T13:45:12;33.57;;;19.30;;
75486;SDS011;65009;44.762;21.516;2022-11-15T13:47:38;40.57;;;23.27;;
75486;SDS011;65009;44.762;21.516;2022-11-15T13:50:05;40.40;;;23.80;;
75486;SDS011;65009;44.762;21.516;2022-11-15T13:52:32;39.60;;;22.33;;
75486;SDS011;65009;44.762;21.516;2022-11-15T13:57:34;29.67;;;18.73;;
75486;SDS011;65009;44.762;21.516;2022-11-15T14:00:05;33.40;;;20.13;;
75486;SDS011;65009;44.762;21.516;2022-11-15T14:02:32;27.40;;;16.70;;
75486;SDS011;65009;44.762;21.516;2022-11-15T14:05:01;35.50;;;19.43;;
75486;SDS011;65009;44.762;21.516;2022-11-15T14:07:28;34.47;;;21.10;;
75486;SDS011;65009;44.762;21.516;2022-11-15T14:09:54;26.00;;;17.17;;
75486;SDS011;65009;44.762;21.516;2022-11-15T14:12:29;33.33;;;18.57;;
75486;SDS011;65009;44.762;21.516;2022-11-15T14:14:55;39.47;;;22.73;;
75486;SDS011;65009;44.762;21.516;2022-11-15T14:22:21;41.83;;;24.67;;
75486;SDS011;65009;44.762;21.516;2022-11-15T14:27:32;34.70;;;20.67;;
75486;SDS011;65009;44.762;21.516;2022-11-15T14:29:59;35.90;;;20.70;;
75486;SDS011;65009;44.762;21.516;2022-11-15T14:32:29;30.37;;;19.47;;
75486;SDS011;65009;44.762;21.516;2022-11-15T14:34:57;37.17;;;22.20;;
75486;SDS011;65009;44.762;21.516;2022-11-15T14:37:27;39.40;;;22.67;;
75486;SDS011;65009;44.762;21.516;2022-11-15T14:39:56;36.50;;;21.63;;
75486;SDS011;65009;44.762;21.516;2022-11-15T14:42:22;41.03;;;24.80;;
75486;SDS011;65009;44.762;21.516;2022-11-15T14:44:49;40.73;;;25.17;;
75486;SDS011;65009;44.762;21.516;2022-11-15T14:47:15;34.37;;;20.33;;
75486;SDS011;65009;44.762;21.516;2022-11-15T14:49:41;33.97;;;21.00;;
75486;SDS011;65009;44.762;21.516;2022-11-15T14:54:53;36.73;;;21.17;;
75486;SDS011;65009;44.762;21.516;2022-11-15T14:57:19;37.97;;;23.57;;
75486;SDS011;65009;44.762;21.516;2022-11-15T14:59:45;32.23;;;20.43;;
75486;SDS011;65009;44.762;21.516;2022-11-15T15:02:14;39.73;;;23.30;;
75486;SDS011;65009;44.762;21.516;2022-11-15T15:04:41;46.03;;;26.27;;
75486;SDS011;65009;44.762;21.516;2022-11-15T15:07:08;46.93;;;27.57;;
75486;SDS011;65009;44.762;21.516;2022-11-15T15:09:34;48.60;;;20.70;;
75486;SDS011;65009;44.762;21.516;2022-11-15T15:12:00;35.47;;;21.00;;
75486;SDS011;65009;44.762;21.516;2022-11-15T15:14:26;37.13;;;21.63;;
75486;SDS011;65009;44.762;21.516;2022-11-15T15:16:52;33.23;;;20.60;;
75486;SDS011;65009;44.762;21.516;2022-11-15T15:19:18;30.63;;;18.37;;
75486;SDS011;65009;44.762;21.516;2022-11-15T15:21:45;35.03;;;19.30;;
75486;SDS011;65009;44.762;21.516;2022-11-15T15:24:14;35.27;;;19.13;;
75486;SDS011;65009;44.762;21.516;2022-11-15T15:26:40;36.47;;;21.43;;
75486;SDS011;65009;44.762;21.516;2022-11-15T15:29:08;39.67;;;21.40;;
75486;SDS011;65009;44.762;21.516;2022-11-15T15:31:34;34.50;;;19.90;;
75486;SDS011;65009;44.762;21.516;2022-11-15T15:34:01;37.20;;;20.80;;
75486;SDS011;65009;44.762;21.516;2022-11-15T15:36:27;33.97;;;18.93;;
75486;SDS011;65009;44.762;21.516;2022-11-15T15:38:53;42.07;;;22.57;;
75486;SDS011;65009;44.762;21.516;2022-11-15T15:41:19;42.87;;;22.73;;
75486;SDS011;65009;44.762;21.516;2022-11-15T15:43:46;39.23;;;22.07;;
75486;SDS011;65009;44.762;21.516;2022-11-15T15:46:16;40.77;;;22.00;;
75486;SDS011;65009;44.762;21.516;2022-11-15T15:48:43;52.33;;;25.50;;